Time;durP1;ratioP1;P1;durP2;ratioP2;P2;SDS_P1;SDS_P2;PMS_P1;PMS_P2;Temp;Humidity;BMP_temperature;BMP_pressure;BME280_temperature;BME280_humidity;BME280_pressure;Samples;Min_cycle;Max_cycle;Signal;HPM_P1;HPM_P2
2023/01/25 00:01:34;;;;;;;48.50;22.15;;;;;;;-0.79;100.00;102971.50;4970325;28;20121;-76
2023/01/25 00:03:59;;;;;;;52.33;23.90;;;;;;;-0.89;100.00;102953.34;4986341;28;20037;-76
2023/01/25 00:06:24;;;;;;;48.95;22.70;;;;;;;-0.86;100.00;102966.38;4986548;28;20117;-76
2023/01/25 00:08:50;;;;;;;45.13;23.30;;;;;;;-0.89;100.00;102957.72;4970301;28;20041;-76
2023/01/25 00:11:16;;;;;;;50.53;23.20;;;;;;;-0.87;100.00;102983.03;4969761;28;20038;-76
2023/01/25 00:13:42;;;;;;;49.38;23.90;;;;;;;-0.87;100.00;102980.41;4970158;28;20027;-76
2023/01/25 00:16:08;;;;;;;51.35;24.63;;;;;;;-0.83;100.00;102988.22;4987649;28;20061;-76
2023/01/25 00:18:33;;;;;;;51.53;23.52;;;;;;;-0.82;100.00;102987.28;4986325;28;20030;-76
2023/01/25 00:20:59;;;;;;;50.63;24.55;;;;;;;-0.78;100.00;103002.06;4969784;28;20089;-75
2023/01/25 00:23:24;;;;;;;51.80;23.35;;;;;;;-0.77;100.00;102996.81;4986130;28;20558;-76
2023/01/25 00:25:57;;;;;;;52.58;23.02;;;;;;;-0.76;100.00;102995.91;4987496;28;20047;-76
2023/01/25 00:28:22;;;;;;;49.45;24.17;;;;;;;-0.77;100.00;102991.56;4986038;28;20507;-77
2023/01/25 00:30:47;;;;;;;51.30;25.00;;;;;;;-0.71;100.00;103003.66;4969528;28;20057;-76
2023/01/25 00:33:16;;;;;;;52.70;23.67;;;;;;;-0.69;100.00;103000.09;4970051;28;20026;-76
2023/01/25 00:35:43;;;;;;;48.78;23.98;;;;;;;-0.69;100.00;103001.88;4985579;28;20121;-76
2023/01/25 00:38:29;;;;;;;47.10;24.27;;;;;;;-0.77;100.00;102978.44;4985855;28;20030;-76
2023/01/25 00:40:54;;;;;;;55.05;24.95;;;;;;;-0.85;100.00;102967.25;4986951;28;20038;-76
2023/01/25 00:43:19;;;;;;;56.17;24.02;;;;;;;-0.94;100.00;102946.47;4985740;28;20023;-76
2023/01/25 00:45:45;;;;;;;50.47;23.75;;;;;;;-0.96;100.00;102954.38;4985834;28;20042;-75
2023/01/25 00:48:10;;;;;;;57.85;26.13;;;;;;;-0.93;100.00;102956.09;4985950;28;20487;-76
2023/01/25 00:50:36;;;;;;;56.65;24.92;;;;;;;-0.79;100.00;102982.00;4985979;28;20038;-77
2023/01/25 00:53:04;;;;;;;56.50;26.52;;;;;;;-0.93;100.00;102966.56;4985801;28;20395;-76
2023/01/25 00:55:29;;;;;;;53.22;24.42;;;;;;;-0.95;100.00;102987.56;4985959;28;20022;-76
2023/01/25 00:57:55;;;;;;;63.35;26.92;;;;;;;-0.99;100.00;102982.44;4985484;28;20038;-76
2023/01/25 01:00:20;;;;;;;60.15;26.40;;;;;;;-0.92;100.00;102997.97;4987042;28;20022;-76
2023/01/25 01:02:45;;;;;;;56.75;26.23;;;;;;;-0.90;100.00;103000.59;4985559;28;20038;-76
2023/01/25 01:05:11;;;;;;;52.40;26.80;;;;;;;-0.89;100.00;103003.19;4969176;28;20030;-76
2023/01/25 01:07:37;;;;;;;54.88;27.05;;;;;;;-0.94;100.00;102999.78;4985431;28;20066;-76
2023/01/25 01:10:03;;;;;;;62.20;27.20;;;;;;;-0.87;100.00;103005.75;4969442;28;20507;-76
2023/01/25 01:12:28;;;;;;;;;;;;;;;-1.00;100.00;102981.56;4969649;28;20038;-77
2023/01/25 01:14:53;;;;;;;60.25;26.10;;;;;;;-1.11;100.00;102976.53;4969046;28;19913;-76
2023/01/25 01:17:19;;;;;;;57.40;26.20;;;;;;;-1.21;100.00;102959.28;4985422;28;20534;-76
2023/01/25 01:19:46;;;;;;;64.00;27.70;;;;;;;-1.23;100.00;102971.56;4985611;28;20399;-76
2023/01/25 01:22:11;;;;;;;58.30;29.00;;;;;;;-1.24;100.00;102976.81;4985231;28;20034;-75
2023/01/25 01:24:36;;;;;;;69.68;28.08;;;;;;;-1.26;100.00;102984.75;4985693;28;20583;-75
2023/01/25 01:27:02;;;;;;;60.33;26.80;;;;;;;-1.31;100.00;102976.97;4985126;28;20487;-76
2023/01/25 01:29:27;;;;;;;66.63;29.45;;;;;;;-1.24;100.00;102996.06;4983017;28;20104;-76
2023/01/25 01:31:53;;;;;;;61.28;27.55;;;;;;;-1.27;100.00;102991.72;4985392;28;20399;-76
2023/01/25 01:34:22;;;;;;;57.95;26.83;;;;;;;-1.35;100.00;102977.91;4969934;28;20019;-76
2023/01/25 01:36:47;;;;;;;68.30;28.58;;;;;;;-1.34;100.00;102981.41;4985206;28;20406;-76
2023/01/25 01:39:14;;;;;;;63.63;28.80;;;;;;;-1.28;100.00;102990.00;4985745;28;20068;-76
2023/01/25 01:41:40;;;;;;;;;;;;;;;-1.19;100.00;102999.44;4985526;28;20081;-76
2023/01/25 01:44:21;;;;;;;66.68;27.30;;;;;;;-1.21;100.00;102992.50;4985615;28;19910;-76
2023/01/25 01:46:57;;;;;;;58.67;27.83;;;;;;;-1.31;100.00;102973.50;4985400;28;20209;-76
2023/01/25 01:49:27;;;;;;;59.05;26.17;;;;;;;-1.27;100.00;102975.13;4985773;28;20125;-76
2023/01/25 01:52:28;;;;;;;64.68;29.85;;;;;;;-1.33;100.00;102960.41;4969628;28;20037;-76
2023/01/25 01:55:04;;;;;;;61.53;27.98;;;;;;;-1.33;100.00;102960.41;4982657;28;20038;-76
2023/01/25 01:57:36;;;;;;;60.03;27.48;;;;;;;-1.43;100.00;102953.63;4985285;28;20065;-75
2023/01/25 02:00:11;;;;;;;58.88;25.50;;;;;;;-1.30;100.00;102976.06;4985686;28;20026;-76
2023/01/25 02:02:40;;;;;;;62.67;27.95;;;;;;;-1.24;100.00;102989.94;4977471;28;20116;-76
2023/01/25 02:05:11;;;;;;;64.05;27.40;;;;;;;-1.22;100.00;102989.00;4985117;28;20101;-76
2023/01/25 02:07:38;;;;;;;70.70;29.38;;;;;;;-1.18;100.00;102985.44;4985038;28;20629;-76
2023/01/25 02:10:08;;;;;;;64.15;28.75;;;;;;;-1.13;100.00;102983.56;4985097;28;20064;-76
2023/01/25 02:12:34;;;;;;;63.22;27.65;;;;;;;-1.22;100.00;102967.19;4984920;28;20026;-76
2023/01/25 02:14:59;;;;;;;65.10;28.25;;;;;;;-1.16;100.00;102970.53;4987102;28;20116;-76
2023/01/25 02:17:27;;;;;;;63.40;29.50;;;;;;;-1.14;100.00;102963.50;4988483;28;20663;-76
2023/01/25 02:20:05;;;;;;;61.78;27.73;;;;;;;-1.22;100.00;102954.06;4984570;28;20068;-76
2023/01/25 02:22:46;;;;;;;67.05;28.35;;;;;;;-1.17;100.00;102966.22;4987990;28;20395;-76
2023/01/25 02:25:15;;;;;;;63.38;26.92;;;;;;;-1.22;100.00;102951.44;4988291;28;20533;-76
2023/01/25 02:27:45;;;;;;;69.70;28.25;;;;;;;-1.18;100.00;102955.75;5004625;28;20045;-77
2023/01/25 02:30:11;;;;;;;69.60;28.05;;;;;;;-1.23;100.00;102947.13;4988347;28;20074;-76
2023/01/25 02:32:37;;;;;;;61.92;28.50;;;;;;;-1.30;100.00;102946.38;4971953;28;20558;-76
2023/01/25 02:35:04;;;;;;;64.65;28.13;;;;;;;-1.29;100.00;102943.75;4972203;28;20053;-76
2023/01/25 02:37:29;;;;;;;61.72;29.15;;;;;;;-1.21;100.00;102959.28;4972185;28;20030;-76
2023/01/25 02:39:55;;;;;;;68.07;26.75;;;;;;;-1.21;100.00;102963.69;4985778;28;20529;-76
2023/01/25 02:42:23;;;;;;;68.95;29.63;;;;;;;-1.42;100.00;102942.25;4987816;28;20023;-76
2023/01/25 02:44:50;;;;;;;66.70;28.00;;;;;;;-1.30;100.00;102956.88;4987974;28;20038;-76
2023/01/25 02:47:15;;;;;;;65.80;27.67;;;;;;;-1.25;100.00;102956.78;4987949;28;20027;-76
2023/01/25 02:49:41;;;;;;;62.92;27.60;;;;;;;-1.31;100.00;102950.75;4988180;28;20899;-76
2023/01/25 02:52:07;;;;;;;59.85;25.70;;;;;;;-1.38;100.00;102946.53;4971901;28;20030;-77
2023/01/25 02:54:33;;;;;;;57.38;27.00;;;;;;;-1.54;100.00;102925.03;4989195;28;20616;-76
2023/01/25 02:56:58;;;;;;;75.15;29.90;;;;;;;-1.42;100.00;102942.25;4987807;28;20057;-76
2023/01/25 02:59:27;;;;;;;61.60;27.63;;;;;;;-1.43;100.00;102944.91;4987895;28;20038;-76
2023/01/25 03:01:56;;;;;;;69.00;30.48;;;;;;;-1.49;100.00;102938.03;4987509;28;20022;-75
2023/01/25 03:04:22;;;;;;;70.53;31.80;;;;;;;-1.42;100.00;102946.63;4987516;28;20084;-76
2023/01/25 03:06:47;;;;;;;68.32;29.42;;;;;;;-1.50;100.00;102933.66;4987364;28;20031;-75
2023/01/25 03:09:13;;;;;;;70.60;29.55;;;;;;;-1.34;100.00;102955.19;4987701;28;20136;-76
2023/01/25 03:11:42;;;;;;;61.03;26.15;;;;;;;-1.40;100.00;102943.09;4971731;28;20092;-76
2023/01/25 03:14:10;;;;;;;67.95;30.00;;;;;;;-1.44;100.00;102949.28;4987408;28;20025;-76
2023/01/25 03:16:35;;;;;;;65.63;28.23;;;;;;;-1.35;100.00;102954.34;4970691;28;20376;-76
2023/01/25 03:19:01;;;;;;;62.30;27.65;;;;;;;-1.29;100.00;102961.19;4987732;28;20657;-75
2023/01/25 03:21:27;;;;;;;68.60;29.05;;;;;;;-1.27;100.00;102956.78;4987063;28;20022;-76
2023/01/25 03:24:00;;;;;;;61.78;27.15;;;;;;;-1.24;100.00;102961.09;4986985;28;20022;-75
2023/01/25 03:26:29;;;;;;;59.58;27.95;;;;;;;-1.21;100.00;102958.44;5002162;23;20047;-74
2023/01/25 03:29:15;;;;;;;61.85;24.95;;;;;;;-1.22;100.00;102954.06;4976370;28;20049;-74
2023/01/25 03:31:43;;;;;;;61.83;25.52;;;;;;;-1.46;100.00;102917.00;4975902;28;20051;-74
2023/01/25 03:34:09;;;;;;;56.35;24.42;;;;;;;-1.51;100.00;102914.47;4975537;28;20033;-74
2023/01/25 03:36:38;;;;;;;55.72;23.10;;;;;;;-1.52;100.00;102901.44;4975579;28;20093;-72
2023/01/25 03:39:03;;;;;;;54.45;23.33;;;;;;;-1.61;100.00;102886.75;4950832;28;20035;-74
2023/01/25 03:41:29;;;;;;;58.58;25.38;;;;;;;-1.55;100.00;102891.00;4960461;28;20097;-73
2023/01/25 03:43:57;;;;;;;56.42;24.38;;;;;;;-1.49;100.00;102901.34;4977488;28;20027;-73
2023/01/25 03:46:23;;;;;;;51.95;24.23;;;;;;;-1.43;100.00;102901.22;4957242;28;20554;-74
2023/01/25 03:48:49;;;;;;;65.57;26.13;;;;;;;-1.35;100.00;102906.31;4968066;28;20411;-72
2023/01/25 03:51:14;;;;;;;61.00;25.88;;;;;;;-1.35;100.00;102898.44;4972884;28;20034;-74
2023/01/25 03:53:39;;;;;;;75.32;24.08;;;;;;;-1.41;100.00;102896.81;4975036;28;20059;-74
2023/01/25 03:56:11;;;;;;;59.30;23.42;;;;;;;-1.44;100.00;102896.88;4951778;28;20663;-73
2023/01/25 03:58:39;;;;;;;58.83;24.75;;;;;;;-1.34;100.00;102903.63;4975863;28;20064;-73
2023/01/25 04:01:07;;;;;;;53.80;23.70;;;;;;;-1.41;100.00;102885.47;4960316;28;20037;-71
2023/01/25 04:03:33;;;;;;;54.65;24.40;;;;;;;-1.43;100.00;102882.88;4975600;28;20037;-74
2023/01/25 04:05:59;;;;;;;61.53;26.52;;;;;;;-1.42;100.00;102878.50;4961113;28;20030;-73
2023/01/25 04:08:27;;;;;;;70.13;26.90;;;;;;;-1.37;100.00;102882.75;4972392;28;20045;-70
2023/01/25 04:10:54;;;;;;;66.03;25.65;;;;;;;-1.35;100.00;102877.47;4943961;28;20376;-74
2023/01/25 04:13:21;;;;;;;59.20;24.02;;;;;;;-1.51;100.00;102867.31;4973378;28;20057;-73
2023/01/25 04:15:48;;;;;;;63.08;25.17;;;;;;;-1.53;100.00;102855.16;4959293;28;20058;-74
2023/01/25 04:18:25;;;;;;;67.13;24.88;;;;;;;-1.62;100.00;102847.47;4973374;28;20523;-72
2023/01/25 04:20:52;;;;;;;63.45;24.95;;;;;;;-1.61;100.00;102852.69;4959612;28;20030;-74
2023/01/25 04:23:19;;;;;;;56.17;24.88;;;;;;;-1.63;100.00;102851.00;4957209;28;20516;-74
2023/01/25 04:25:59;;;;;;;55.92;24.63;;;;;;;-1.55;100.00;102868.28;4958647;28;20114;-74
2023/01/25 04:28:26;;;;;;;61.53;24.38;;;;;;;-1.56;100.00;102860.47;4972562;28;20411;-74
2023/01/25 04:30:56;;;;;;;64.32;25.05;;;;;;;-1.68;100.00;102851.09;4957726;28;20022;-73
2023/01/25 04:33:24;;;;;;;58.63;25.52;;;;;;;-1.78;100.00;102852.16;4972294;28;20030;-73
2023/01/25 04:35:50;;;;;;;53.13;23.35;;;;;;;-1.82;100.00;102835.69;4959650;28;20559;-73
2023/01/25 04:38:17;;;;;;;56.22;26.52;;;;;;;-1.73;100.00;102851.19;4972715;28;20397;-70
2023/01/25 04:40:43;;;;;;;58.38;25.13;;;;;;;-1.68;100.00;102864.19;4958425;28;20079;-74
2023/01/25 04:43:12;;;;;;;61.20;26.83;;;;;;;-1.60;100.00;102866.66;4958821;28;20023;-72
2023/01/25 04:45:38;;;;;;;54.60;23.58;;;;;;;-1.63;100.00;102862.34;4941972;28;20119;-70
2023/01/25 04:48:10;;;;;;;47.75;23.60;;;;;;;-1.57;100.00;102871.81;4960441;28;20050;-74
2023/01/25 04:50:41;;;;;;;57.00;23.20;;;;;;;-1.53;100.00;102869.09;4975393;28;20061;-74
2023/01/25 04:53:12;;;;;;;52.95;21.60;;;;;;;-1.61;100.00;102850.09;4959274;28;20033;-74
2023/01/25 04:55:38;;;;;;;60.50;25.48;;;;;;;-1.78;100.00;102837.34;4941997;28;20031;-73
2023/01/25 04:58:06;;;;;;;52.72;24.35;;;;;;;-1.94;100.00;102833.31;4952968;28;20029;-73
2023/01/25 05:00:32;;;;;;;52.67;22.70;;;;;;;-1.99;100.00;102836.03;4961638;28;20085;-71
2023/01/25 05:02:59;;;;;;;51.90;21.52;;;;;;;-1.96;100.00;102841.19;4960547;28;20027;-74
2023/01/25 05:05:24;;;;;;;55.47;24.10;;;;;;;-1.79;100.00;102860.94;4971722;28;20026;-74
2023/01/25 05:07:51;;;;;;;52.95;22.13;;;;;;;-1.66;100.00;102877.25;4975208;28;20621;-71
2023/01/25 05:10:17;;;;;;;61.08;25.52;;;;;;;-1.71;100.00;102857.28;4972825;28;20065;-73
2023/01/25 05:13:02;;;;;;;58.92;24.35;;;;;;;-1.83;100.00;102843.56;4976318;28;20482;-72
2023/01/25 05:15:28;;;;;;;58.08;25.42;;;;;;;-2.08;100.00;102822.22;4975673;28;20030;-71
2023/01/25 05:17:53;;;;;;;62.83;25.67;;;;;;;-2.04;100.00;102837.00;4965963;28;20042;-71
2023/01/25 05:20:19;;;;;;;56.30;23.52;;;;;;;-2.07;100.00;102840.53;4970993;28;20018;-71
2023/01/25 05:22:45;;;;;;;56.72;23.17;;;;;;;-2.19;100.00;102831.16;4961998;28;20612;-71
2023/01/25 05:26:59;;;;;;;61.25;22.98;;;;;;;-2.07;100.00;102839.69;4950075;28;20042;-72
2023/01/25 05:27:56;;;;;;;;;;;;;;;-1.97;100.00;102844.72;4971247;28;20069;-72
2023/01/25 05:30:41;;;;;;;58.15;25.00;;;;;;;-2.07;100.00;102839.69;4970658;28;19918;-72
2023/01/25 05:33:18;;;;;;;61.63;26.70;;;;;;;-2.14;100.00;102839.78;4951053;28;20030;-72
2023/01/25 05:35:44;;;;;;;64.05;25.35;;;;;;;-2.29;100.00;102840.09;4964776;28;20395;-72
2023/01/25 05:38:09;;;;;;;61.45;24.40;;;;;;;-2.14;100.00;102850.25;4965310;28;20023;-72
2023/01/25 05:40:35;;;;;;;63.03;25.05;;;;;;;-2.29;100.00;102837.47;4964740;28;20090;-71
2023/01/25 05:43:00;;;;;;;63.80;22.92;;;;;;;-2.35;100.00;102840.19;4961395;28;20046;-71
2023/01/25 05:45:29;;;;;;;63.30;25.27;;;;;;;-2.35;100.00;102840.19;4961010;28;20026;-72
2023/01/25 05:47:57;;;;;;;58.92;22.85;;;;;;;-2.26;100.00;102850.50;4961199;28;20483;-71
2023/01/25 05:50:24;;;;;;;62.17;24.90;;;;;;;-2.32;100.00;102850.59;4970547;28;20027;-71
2023/01/25 05:52:59;;;;;;;66.95;25.60;;;;;;;-2.29;100.00;102863.63;4969823;28;20059;-72
2023/01/25 05:55:25;;;;;;;;;;;;;;;-2.26;100.00;102860.94;4968835;28;20030;-71
2023/01/25 05:57:54;;;;;;;64.03;24.92;;;;;;;-2.38;100.00;102861.19;4952566;28;20028;-72
2023/01/25 06:00:20;;;;;;;79.43;27.77;;;;;;;-2.43;100.00;102866.50;4968324;28;20027;-72
2023/01/25 06:02:46;;;;;;;63.08;24.85;;;;;;;-2.34;100.00;102863.72;4968573;28;20031;-71
2023/01/25 06:05:15;;;;;;;74.78;27.88;;;;;;;-2.27;100.00;102884.53;4952732;28;20042;-72
2023/01/25 06:07:41;;;;;;;;;;;;;;;-2.29;100.00;102886.34;4965052;28;20166;-72
2023/01/25 06:10:07;;;;;;;70.60;27.88;;;;;;;-2.38;100.00;102874.25;4967157;28;19941;-71
2023/01/25 06:12:33;;;;;;;76.40;29.05;;;;;;;-2.25;100.00;102895.81;4967245;28;20026;-72
2023/01/25 06:15:00;;;;;;;73.22;26.73;;;;;;;-2.23;100.00;102894.91;4967623;28;20030;-72
2023/01/25 06:17:25;;;;;;;75.15;28.42;;;;;;;-2.15;100.00;102894.78;4951879;28;20407;-71
2023/01/25 06:20:17;;;;;;;72.55;27.60;;;;;;;-2.33;100.00;102888.13;4980268;28;20035;-72
2023/01/25 06:22:59;;;;;;;72.38;25.48;;;;;;;-2.30;100.00;102882.81;4956469;28;20086;-72
2023/01/25 06:25:25;;;;;;;74.38;28.17;;;;;;;-2.26;100.00;102887.13;4978643;28;20030;-72
2023/01/25 06:27:50;;;;;;;75.88;29.25;;;;;;;-2.28;100.00;102883.66;4968933;28;20053;-72
2023/01/25 06:30:16;;;;;;;82.88;30.00;;;;;;;-2.22;100.00;102882.72;4967778;28;20034;-71
2023/01/25 06:32:41;;;;;;;81.13;28.60;;;;;;;-2.15;100.00;102879.09;4968684;28;20061;-72
2023/01/25 06:35:07;;;;;;;82.50;31.25;;;;;;;-2.07;100.00;102890.25;4974889;28;20097;-72
2023/01/25 06:37:32;;;;;;;82.57;29.45;;;;;;;-2.02;100.00;102896.28;4967487;28;20041;-72
2023/01/25 06:39:57;;;;;;;80.38;31.00;;;;;;;-1.95;100.00;102891.78;4971333;28;20117;-72
2023/01/25 06:42:23;;;;;;;81.97;29.30;;;;;;;-1.97;100.00;102899.69;4979143;28;20035;-72
2023/01/25 06:44:49;;;;;;;71.60;27.83;;;;;;;-1.96;100.00;102897.94;4968103;28;20117;-72
2023/01/25 06:47:14;;;;;;;86.22;32.97;;;;;;;-1.93;100.00;102882.16;4968075;28;20500;-72
2023/01/25 06:49:40;;;;;;;78.38;29.52;;;;;;;-1.92;100.00;102890.00;4978048;28;20018;-72
2023/01/25 06:52:05;;;;;;;79.25;30.20;;;;;;;-1.81;100.00;102888.91;4975576;28;20042;-72
2023/01/25 06:54:30;;;;;;;89.47;32.05;;;;;;;-1.90;100.00;102879.47;4977638;28;20045;-72
2023/01/25 06:56:56;;;;;;;84.65;28.55;;;;;;;-1.89;100.00;102875.13;4970535;28;20157;-72
2023/01/25 06:59:21;;;;;;;73.72;29.88;;;;;;;-1.89;100.00;102875.97;4968253;28;20070;-72
2023/01/25 07:01:46;;;;;;;84.05;27.67;;;;;;;-1.79;100.00;102882.75;4966898;28;20412;-72
2023/01/25 07:04:12;;;;;;;76.80;29.73;;;;;;;-1.85;100.00;102875.03;4968343;28;20074;-72
2023/01/25 07:06:37;;;;;;;72.50;26.33;;;;;;;-1.82;100.00;102866.25;4971931;28;20034;-72
2023/01/25 07:09:09;;;;;;;69.70;26.63;;;;;;;-1.85;100.00;102858.44;4971486;28;20038;-72
2023/01/25 07:11:34;;;;;;;63.47;23.55;;;;;;;-1.87;100.00;102853.25;4977712;28;20495;-72
2023/01/25 07:14:00;;;;;;;68.15;24.45;;;;;;;-1.83;100.00;102851.41;4971098;28;20130;-71
2023/01/25 07:16:26;;;;;;;62.28;24.08;;;;;;;-1.85;100.00;102851.47;4968228;28;20022;-72
2023/01/25 07:18:53;;;;;;;60.83;22.48;;;;;;;-1.89;100.00;102851.56;4968022;28;20081;-72
2023/01/25 07:21:20;;;;;;;58.90;23.02;;;;;;;-1.83;100.00;102848.78;4967956;28;20129;-72
2023/01/25 07:23:47;;;;;;;58.15;21.98;;;;;;;-1.92;100.00;102840.25;4974779;28;20046;-72
2023/01/25 07:26:22;;;;;;;67.70;26.58;;;;;;;-2.12;100.00;102824.06;4967957;28;20034;-72
2023/01/25 07:28:48;;;;;;;57.88;21.45;;;;;;;-2.21;100.00;102809.38;4968844;28;20034;-71
2023/01/25 07:31:15;;;;;;;75.03;24.20;;;;;;;-2.26;100.00;102803.38;4978105;28;20050;-71
2023/01/25 07:33:40;;;;;;;63.13;22.98;;;;;;;-2.26;100.00;102810.38;4962531;28;20444;-71
2023/01/25 07:36:08;;;;;;;68.93;24.80;;;;;;;-2.38;100.00;102804.47;4966592;28;20030;-72
2023/01/25 07:38:34;;;;;;;73.82;25.52;;;;;;;-2.29;100.00;102815.69;4972729;28;20491;-72
2023/01/25 07:40:59;;;;;;;68.72;23.08;;;;;;;-2.19;100.00;102825.94;4975322;28;20035;-71
2023/01/25 07:43:25;;;;;;;65.00;24.38;;;;;;;-2.17;100.00;102833.75;4973705;28;20062;-72
2023/01/25 07:45:51;;;;;;;66.45;25.77;;;;;;;-2.26;100.00;102831.31;4974314;28;20653;-72
2023/01/25 07:48:19;;;;;;;80.15;25.10;;;;;;;-2.19;100.00;102838.16;4974733;28;20034;-70
2023/01/25 07:50:48;;;;;;;75.82;24.55;;;;;;;-2.22;100.00;102825.13;4972766;28;20114;-72
2023/01/25 07:53:15;;;;;;;71.35;22.27;;;;;;;-2.16;100.00;102836.31;4973359;28;20027;-71
2023/01/25 07:55:40;;;;;;;68.85;22.52;;;;;;;-2.17;100.00;102829.38;4973540;28;20488;-72
2023/01/25 07:58:08;;;;;;;74.95;24.80;;;;;;;-2.19;100.00;102831.16;4976792;28;20066;-72
2023/01/25 08:00:33;;;;;;;64.35;21.30;;;;;;;-2.20;100.00;102837.31;4961831;28;20054;-73
2023/01/25 08:03:01;;;;;;;57.47;19.63;;;;;;;-2.16;100.00;102841.56;4951740;28;20022;-73
2023/01/25 08:05:26;;;;;;;58.03;19.42;;;;;;;-2.28;100.00;102830.47;4970004;28;20360;-71
2023/01/25 08:07:52;;;;;;;73.35;21.92;;;;;;;-2.34;100.00;102821.00;4971966;28;20643;-71
2023/01/25 08:10:17;;;;;;;64.63;21.33;;;;;;;-2.41;100.00;102809.78;4954850;28;20038;-72
2023/01/25 08:12:45;;;;;;;59.65;19.38;;;;;;;-2.56;100.00;102803.06;4974109;28;20130;-72
2023/01/25 08:15:10;;;;;;;64.10;19.42;;;;;;;-2.39;100.00;102813.25;4973294;28;20030;-72
2023/01/25 08:17:36;;;;;;;65.30;21.98;;;;;;;-2.39;100.00;102802.78;4971950;28;20966;-72
2023/01/25 08:20:03;;;;;;;58.58;21.20;;;;;;;-2.32;100.00;102813.97;4960722;28;20442;-71
2023/01/25 08:22:28;;;;;;;66.30;21.35;;;;;;;-2.30;100.00;102813.94;4967975;28;20038;-73
2023/01/25 08:24:54;;;;;;;61.20;21.58;;;;;;;-2.21;100.00;102819.84;4977970;28;20120;-72
2023/01/25 08:27:19;;;;;;;70.03;22.67;;;;;;;-2.22;100.00;102812.91;4973691;28;20643;-72
2023/01/25 08:29:45;;;;;;;66.63;22.02;;;;;;;-2.23;100.00;102811.16;4978510;28;20059;-73
2023/01/25 08:32:11;;;;;;;68.40;22.88;;;;;;;-2.21;100.00;102817.25;4971836;28;20034;-72
2023/01/25 08:34:38;;;;;;;98.85;23.05;;;;;;;-2.18;100.00;102813.69;4956422;28;20026;-71
2023/01/25 08:37:05;;;;;;;67.15;21.98;;;;;;;-2.20;100.00;102800.66;4973047;28;20480;-72
2023/01/25 08:39:30;;;;;;;63.90;22.73;;;;;;;-2.38;100.00;102793.16;4976441;28;20026;-73
2023/01/25 08:41:56;;;;;;;70.43;21.58;;;;;;;-2.44;100.00;102788.88;4972589;28;20041;-72
2023/01/25 08:44:22;;;;;;;;;;;;;;;-2.40;100.00;102787.09;4972127;28;20042;-71
2023/01/25 08:46:48;;;;;;;70.43;22.23;;;;;;;-2.43;100.00;102774.09;4972109;28;19914;-72
2023/01/25 08:49:14;;;;;;;62.05;24.15;;;;;;;-2.43;100.00;102774.09;4974064;28;20026;-72
2023/01/25 08:51:39;;;;;;;58.47;21.73;;;;;;;-2.48;100.00;102765.44;4957037;28;20455;-72
2023/01/25 08:54:06;;;;;;;67.50;22.42;;;;;;;-2.66;100.00;102754.44;4952041;28;20089;-72
2023/01/25 08:56:32;;;;;;;63.20;24.30;;;;;;;-2.62;100.00;102758.72;4971158;28;20057;-72
2023/01/25 08:58:57;;;;;;;72.43;21.17;;;;;;;-2.56;100.00;102757.75;4959772;28;20398;-72
2023/01/25 09:01:23;;;;;;;66.05;24.30;;;;;;;-2.51;100.00;102755.03;4972507;28;20257;-72
2023/01/25 09:03:49;;;;;;;62.67;23.95;;;;;;;-2.48;100.00;102758.47;4972980;28;20054;-73
2023/01/25 09:06:16;;;;;;;66.82;23.10;;;;;;;-2.60;100.00;102751.72;4972270;28;20368;-72
2023/01/25 09:08:41;;;;;;;73.03;24.45;;;;;;;-2.53;100.00;102741.13;4961154;28;20031;-72
2023/01/25 09:11:09;;;;;;;62.72;23.05;;;;;;;-2.50;100.00;102743.69;4975349;28;20039;-72
2023/01/25 09:13:35;;;;;;;77.75;25.42;;;;;;;-2.69;100.00;102725.75;4957210;28;20123;-72
2023/01/25 09:16:05;;;;;;;66.30;22.88;;;;;;;-2.66;100.00;102736.13;4973224;28;20443;-71
2023/01/25 09:18:32;;;;;;;75.72;23.48;;;;;;;-2.63;100.00;102733.44;4965858;28;20043;-70
2023/01/25 09:20:57;;;;;;;;;;;;;;;-2.53;100.00;102741.13;4972379;28;20041;-71
2023/01/25 09:23:22;;;;;;;72.20;25.80;;;;;;;-2.61;100.00;102738.66;4977161;28;19926;-72
2023/01/25 09:25:58;;;;;;;66.28;20.65;;;;;;;-2.57;100.00;102741.19;4974557;28;20050;-73
2023/01/25 09:28:24;;;;;;;84.43;27.23;;;;;;;-2.75;100.00;102731.06;4976252;28;20101;-71
2023/01/25 09:30:55;;;;;;;74.47;25.42;;;;;;;-2.88;100.00;102704.31;4962045;28;20031;-72
2023/01/25 09:33:30;;;;;;;72.95;24.95;;;;;;;-2.60;100.00;102730.81;4962842;28;20031;-71
2023/01/25 09:35:56;;;;;;;69.78;26.40;;;;;;;-2.50;100.00;102739.31;4978956;28;20035;-72
2023/01/25 09:38:21;;;;;;;66.28;25.17;;;;;;;-2.46;100.00;102738.38;4977391;28;20554;-72
2023/01/25 09:41:15;;;;;;;71.15;23.70;;;;;;;-2.37;100.00;102737.31;4977657;28;20042;-72
2023/01/25 09:44:02;;;;;;;60.65;20.55;;;;;;;-2.40;100.00;102726.91;4966009;28;20043;-73
2023/01/25 09:46:47;;;;;;;67.03;22.88;;;;;;;-2.49;100.00;102712.25;4978826;28;20654;-71
2023/01/25 09:49:57;;;;;;;67.97;25.67;;;;;;;-2.40;100.00;102711.22;4978516;28;20057;-71
2023/01/25 09:52:42;;;;;;;61.88;22.83;;;;;;;-2.31;100.00;102716.28;4965965;28;20034;-71
2023/01/25 09:55:17;;;;;;;40.10;16.25;;;;;;;-2.23;100.00;102719.56;4949700;28;20070;-71
2023/01/25 09:57:45;;;;;;;54.28;22.83;;;;;;;-2.18;100.00;102715.13;4979935;28;20089;-71
2023/01/25 10:00:22;;;;;;;54.00;21.02;;;;;;;-2.11;100.00;102713.22;4975528;28;20460;-72
2023/01/25 10:03:01;;;;;;;53.78;20.15;;;;;;;-2.22;100.00;102700.38;4947364;28;20177;-71
2023/01/25 10:05:35;;;;;;;57.00;20.63;;;;;;;-2.30;100.00;102691.81;4977837;28;20033;-70
2023/01/25 10:08:19;;;;;;;56.38;21.05;;;;;;;-2.30;100.00;102681.34;4976236;28;20925;-70
2023/01/25 10:10:49;;;;;;;59.05;21.83;;;;;;;-2.37;100.00;102680.63;4973172;28;20105;-72
2023/01/25 10:13:19;;;;;;;52.00;20.30;;;;;;;-2.33;100.00;102663.09;4978231;28;20390;-71
2023/01/25 10:16:10;;;;;;;56.15;22.33;;;;;;;-2.28;100.00;102655.16;4974323;28;20029;-71
2023/01/25 10:18:47;;;;;;;50.67;20.63;;;;;;;-2.16;100.00;102650.50;4970756;28;20110;-71
2023/01/25 10:21:44;;;;;;;51.08;21.00;;;;;;;-2.26;100.00;102637.69;4975533;28;20034;-71
2023/01/25 10:24:12;;;;;;;54.08;22.90;;;;;;;-2.25;100.00;102619.31;4908067;29;20091;-72
2023/01/25 10:26:41;;;;;;;54.88;20.98;;;;;;;-2.27;100.00;102615.91;4921018;29;20134;-72
2023/01/25 10:29:15;;;;;;;53.08;22.45;;;;;;;-2.15;100.00;102618.22;4912055;29;20087;-71
2023/01/25 10:31:45;;;;;;;55.78;22.90;;;;;;;-2.17;100.00;102606.94;4911352;29;20047;-72
2023/01/25 10:34:17;;;;;;;48.50;20.20;;;;;;;-2.13;100.00;102598.13;4926450;29;20465;-70
2023/01/25 10:36:47;;;;;;;48.67;19.13;;;;;;;-2.10;100.00;102588.47;4920554;29;20404;-71
2023/01/25 10:39:12;;;;;;;49.60;19.83;;;;;;;-2.14;100.00;102583.28;4918991;29;20043;-71
2023/01/25 10:41:42;;;;;;;50.15;21.30;;;;;;;-2.25;100.00;102568.75;4917561;29;20111;-71
2023/01/25 10:44:21;;;;;;;45.60;20.02;;;;;;;-2.50;100.00;102543.16;4926931;29;20058;-71
2023/01/25 10:46:52;;;;;;;47.33;19.85;;;;;;;-2.78;100.00;102521.97;4922497;29;20043;-70
2023/01/25 10:49:30;;;;;;;48.72;20.88;;;;;;;-2.73;100.00;102514.91;4918229;29;20040;-71
2023/01/25 10:52:10;;;;;;;55.22;21.00;;;;;;;-2.78;100.00;102511.53;4919926;29;20046;-71
2023/01/25 10:54:35;;;;;;;53.13;19.92;;;;;;;-2.73;100.00;102514.03;4920197;29;20048;-71
2023/01/25 10:57:01;;;;;;;41.75;18.02;;;;;;;-2.80;100.00;102508.94;4923254;29;20066;-71
2023/01/25 10:59:27;;;;;;;;;;;;;;;-2.84;100.00;102511.66;4906864;29;20086;-70
2023/01/25 11:01:53;;;;;;;42.70;17.90;;;;;;;-2.70;100.00;102517.44;4947909;28;19997;-71
2023/01/25 11:04:31;;;;;;;42.97;17.17;;;;;;;-2.68;100.00;102513.03;4972626;28;20121;-71
2023/01/25 11:06:57;;;;;;;47.03;20.08;;;;;;;-2.65;100.00;102502.50;4968461;28;20133;-70
2023/01/25 11:09:33;;;;;;;41.50;18.45;;;;;;;-2.62;100.00;102505.06;4978573;28;20022;-71
2023/01/25 11:12:01;;;;;;;49.03;21.00;;;;;;;-2.62;100.00;102504.22;4961496;28;20034;-71